createdAt,value
2018-11-12T00:01:43.746Z,1.80
2018-11-12T00:04:13.527Z,2.13
2018-11-12T00:06:43.365Z,1.70
2018-11-12T00:09:13.158Z,1.53
2018-11-12T00:11:43.057Z,1.53
2018-11-12T00:14:12.935Z,1.87
2018-11-12T00:16:42.770Z,2.83
2018-11-12T00:19:12.599Z,1.87
2018-11-12T00:21:42.445Z,1.80
2018-11-12T00:24:12.315Z,1.77
2018-11-12T00:26:42.170Z,2.17
2018-11-12T00:29:12.026Z,1.73
2018-11-12T00:31:41.856Z,2.03
2018-11-12T00:34:11.758Z,2.50
2018-11-12T00:36:41.518Z,1.80
2018-11-12T00:39:12.563Z,1.93
2018-11-12T00:41:42.758Z,1.90
2018-11-12T00:44:12.638Z,1.87
2018-11-12T00:46:42.430Z,2.07
2018-11-12T00:49:12.408Z,2.43
2018-11-12T00:51:42.295Z,2.20
2018-11-12T00:54:12.093Z,1.90
2018-11-12T00:56:41.887Z,1.47
2018-11-12T00:59:11.723Z,2.13
2018-11-12T01:01:41.504Z,2.23
2018-11-12T01:04:11.435Z,1.90
2018-11-12T01:06:41.163Z,2.33
2018-11-12T01:09:11.960Z,1.83
2018-11-12T01:11:41.942Z,1.87
2018-11-12T01:14:11.739Z,1.87
2018-11-12T01:16:41.496Z,2.20
2018-11-12T01:19:11.350Z,2.00
2018-11-12T01:21:41.278Z,2.40
2018-11-12T01:24:11.093Z,2.50
2018-11-12T01:26:40.850Z,2.20
2018-11-12T01:29:11.034Z,2.37
2018-11-12T01:31:40.893Z,2.40
2018-11-12T01:34:10.751Z,2.13
2018-11-12T01:36:40.540Z,2.33
2018-11-12T01:39:11.459Z,2.30
2018-11-12T01:41:42.342Z,1.97
2018-11-12T01:44:12.136Z,1.97
2018-11-12T01:46:41.902Z,2.37
2018-11-12T01:49:12.262Z,1.47
2018-11-12T01:51:42.059Z,1.90
2018-11-12T01:54:11.975Z,1.90
2018-11-12T01:56:41.827Z,2.90
2018-11-12T01:59:11.649Z,1.93
2018-11-12T02:01:41.481Z,2.30
2018-11-12T02:04:11.313Z,1.77
2018-11-12T02:06:41.274Z,1.60
2018-11-12T02:09:12.201Z,2.17
2018-11-12T02:11:42.270Z,2.30
2018-11-12T02:14:12.142Z,1.67
2018-11-12T02:16:41.931Z,1.83
2018-11-12T02:19:11.918Z,1.67
2018-11-12T02:21:41.761Z,1.87
2018-11-12T02:24:11.610Z,2.57
2018-11-12T02:26:41.556Z,2.07
2018-11-12T02:29:11.477Z,1.87
2018-11-12T02:31:41.305Z,2.27
2018-11-12T02:34:11.139Z,1.57
2018-11-12T02:36:40.966Z,2.13
2018-11-12T02:39:11.455Z,2.23
2018-11-12T02:41:41.345Z,2.20
2018-11-12T02:44:11.244Z,2.90
2018-11-12T02:46:41.006Z,2.37
2018-11-12T02:49:10.826Z,3.07
2018-11-12T02:51:40.644Z,1.67
2018-11-12T02:54:10.488Z,2.30
2018-11-12T02:56:40.262Z,2.67
2018-11-12T02:59:10.122Z,1.90
2018-11-12T03:01:39.899Z,2.60
2018-11-12T03:04:09.768Z,1.43
2018-11-12T03:06:39.656Z,1.90
2018-11-12T03:09:11.883Z,3.30
2018-11-12T03:11:41.939Z,1.97
2018-11-12T03:14:11.750Z,1.83
2018-11-12T03:16:41.527Z,1.40
2018-11-12T03:19:11.409Z,1.77
2018-11-12T03:21:41.165Z,1.40
2018-11-12T03:24:10.982Z,1.60
2018-11-12T03:26:40.799Z,1.67
2018-11-12T03:29:10.617Z,1.43
2018-11-12T03:31:40.403Z,1.43
2018-11-12T03:34:10.366Z,1.57
2018-11-12T03:36:40.167Z,1.40
2018-11-12T03:39:11.054Z,1.60
2018-11-12T03:41:40.910Z,1.40
2018-11-12T03:44:10.733Z,1.53
2018-11-12T03:46:40.542Z,2.13
2018-11-12T03:49:10.362Z,1.60
2018-11-12T03:51:40.152Z,1.60
2018-11-12T03:54:09.934Z,1.53
2018-11-12T03:56:39.763Z,1.30
2018-11-12T03:59:09.559Z,1.67
2018-11-12T04:01:45.517Z,1.77
2018-11-12T04:04:16.550Z,3.20
2018-11-12T04:06:47.062Z,2.17
2018-11-12T04:09:16.935Z,1.57
2018-11-12T04:11:46.738Z,1.87
2018-11-12T04:14:16.587Z,1.53
2018-11-12T04:16:46.381Z,2.73
2018-11-12T04:19:16.149Z,1.73
2018-11-12T04:21:45.974Z,2.10
2018-11-12T04:24:15.791Z,1.90
2018-11-12T04:26:45.625Z,1.83
2018-11-12T04:29:15.411Z,1.67
2018-11-12T04:31:45.239Z,2.40
2018-11-12T04:34:15.191Z,2.23
2018-11-12T04:36:44.984Z,1.67
2018-11-12T04:39:14.761Z,1.93
2018-11-12T04:41:44.602Z,1.63
2018-11-12T04:44:14.351Z,1.93
2018-11-12T04:46:44.255Z,2.80
2018-11-12T04:49:14.017Z,1.43
2018-11-12T04:51:43.858Z,2.20
2018-11-12T04:54:13.613Z,1.37
2018-11-12T04:56:43.483Z,1.73
2018-11-12T04:59:13.268Z,1.43
2018-11-12T05:01:43.203Z,2.10
2018-11-12T05:04:12.990Z,1.77
2018-11-12T05:06:42.758Z,2.07
2018-11-12T05:09:12.571Z,2.20
2018-11-12T05:11:42.398Z,1.80
2018-11-12T05:14:12.245Z,1.80
2018-11-12T05:16:42.112Z,1.83
2018-11-12T05:19:11.862Z,2.10
2018-11-12T05:21:41.711Z,1.47
2018-11-12T05:24:11.499Z,1.10
2018-11-12T05:26:41.396Z,1.60
2018-11-12T05:29:11.279Z,1.67
2018-11-12T05:31:41.067Z,1.10
2018-11-12T05:34:10.879Z,1.40
2018-11-12T05:36:40.682Z,2.23
2018-11-12T05:39:13.111Z,1.70
2018-11-12T05:41:42.978Z,2.50
2018-11-12T05:44:12.975Z,1.33
2018-11-12T05:46:42.818Z,1.23
2018-11-12T05:49:12.658Z,2.63
2018-11-12T05:51:42.652Z,1.23
2018-11-12T05:54:12.423Z,1.90
2018-11-12T05:56:42.288Z,1.90
2018-11-12T05:59:12.151Z,1.33
2018-11-12T06:01:42.020Z,2.00
2018-11-12T06:04:11.783Z,1.60
2018-11-12T06:06:41.851Z,1.40
2018-11-12T06:09:12.324Z,1.73
2018-11-12T06:11:42.176Z,1.80
2018-11-12T06:14:12.450Z,1.60
2018-11-12T06:16:42.299Z,1.57
2018-11-12T06:19:12.139Z,2.07
2018-11-12T06:21:41.952Z,2.37
2018-11-12T06:24:11.716Z,2.20
2018-11-12T06:26:41.581Z,2.13
2018-11-12T06:29:11.375Z,2.13
2018-11-12T06:31:41.352Z,1.50
2018-11-12T06:34:11.174Z,2.10
2018-11-12T06:36:41.031Z,1.97
2018-11-12T06:39:10.983Z,1.87
2018-11-12T06:41:40.859Z,1.63
2018-11-12T06:44:10.958Z,1.20
2018-11-12T06:46:41.150Z,1.90
2018-11-12T06:49:11.122Z,2.90
2018-11-12T06:51:40.910Z,2.07
2018-11-12T06:54:10.662Z,1.87
2018-11-12T06:56:40.543Z,1.73
2018-11-12T06:59:10.319Z,2.63
2018-11-12T07:01:40.154Z,1.40
2018-11-12T07:04:09.898Z,3.40
2018-11-12T07:06:39.683Z,2.00
2018-11-12T07:09:11.698Z,2.20
2018-11-12T07:11:41.941Z,1.67
2018-11-12T07:14:17.296Z,1.70
2018-11-12T07:17:05.492Z,1.50
2018-11-12T07:19:40.770Z,1.37
2018-11-12T07:22:10.546Z,1.37
2018-11-12T07:24:40.403Z,1.93
2018-11-12T07:27:10.242Z,1.60
2018-11-12T07:29:40.027Z,2.07
2018-11-12T07:32:09.872Z,1.60
2018-11-12T07:34:39.776Z,3.20
2018-11-12T07:37:09.574Z,1.67
2018-11-12T07:39:39.383Z,2.37
2018-11-12T07:42:09.300Z,2.17
2018-11-12T07:44:39.211Z,1.70
2018-11-12T07:47:09.323Z,2.23
2018-11-12T07:49:39.138Z,1.67
2018-11-12T07:52:08.987Z,1.80
2018-11-12T07:54:38.777Z,1.77
2018-11-12T07:57:08.662Z,1.57
2018-11-12T07:59:38.519Z,2.40
2018-11-12T08:02:08.460Z,1.40
2018-11-12T08:04:38.228Z,1.30
2018-11-12T08:07:08.090Z,1.50
2018-11-12T08:09:37.909Z,1.37
2018-11-12T08:12:07.657Z,1.83
2018-11-12T08:14:37.591Z,1.63
2018-11-12T08:17:07.282Z,2.77
2018-11-12T08:19:37.099Z,2.10
2018-11-12T08:22:06.989Z,1.70
2018-11-12T08:24:36.892Z,1.53
2018-11-12T08:27:06.694Z,1.70
2018-11-12T08:29:36.486Z,1.63
2018-11-12T08:32:07.090Z,1.33
2018-11-12T08:34:36.911Z,1.40
2018-11-12T08:37:07.304Z,1.10
2018-11-12T08:39:37.404Z,1.70
2018-11-12T08:42:07.128Z,1.17
2018-11-12T08:44:37.032Z,1.30
2018-11-12T08:47:06.941Z,1.60
2018-11-12T08:49:36.785Z,0.90
2018-11-12T08:52:06.795Z,1.47
2018-11-12T08:54:36.627Z,1.80
2018-11-12T08:57:06.631Z,1.40
2018-11-12T08:59:36.535Z,1.50
2018-11-12T09:02:06.699Z,1.13
2018-11-12T09:04:36.567Z,1.40
2018-11-12T09:07:06.531Z,1.30
2018-11-12T09:09:36.262Z,1.30
2018-11-12T09:12:06.067Z,1.10
2018-11-12T09:14:35.853Z,0.98
2018-11-12T09:17:06.010Z,1.07
2018-11-12T09:19:35.791Z,1.40
2018-11-12T09:22:05.821Z,1.17
2018-11-12T09:24:35.602Z,1.43
2018-11-12T09:27:06.084Z,1.70
2018-11-12T09:29:35.901Z,1.60
2018-11-12T09:32:05.802Z,1.57
2018-11-12T09:34:35.575Z,1.60
2018-11-12T09:37:05.578Z,1.33
2018-11-12T09:39:35.355Z,1.53
2018-11-12T09:42:05.434Z,1.07
2018-11-12T09:44:35.282Z,1.27
2018-11-12T09:47:05.142Z,1.37
2018-11-12T09:49:34.991Z,1.43
2018-11-12T09:52:05.431Z,1.53
2018-11-12T09:54:35.530Z,1.43
2018-11-12T09:57:05.418Z,1.20
2018-11-12T09:59:35.276Z,1.40
2018-11-12T10:02:05.536Z,1.27
2018-11-12T10:04:35.282Z,1.25
2018-11-12T10:07:07.161Z,1.30
2018-11-12T10:09:36.897Z,1.43
2018-11-12T10:12:07.377Z,1.60
2018-11-12T10:14:38.780Z,1.37
2018-11-12T10:17:07.902Z,1.50
2018-11-12T10:19:35.294Z,1.47
2018-11-12T10:22:05.310Z,1.30
2018-11-12T10:24:35.062Z,1.03
2018-11-12T10:27:05.024Z,1.20
2018-11-12T10:29:34.857Z,1.57
2018-11-12T10:32:04.753Z,1.32
2018-11-12T10:34:34.539Z,1.20
2018-11-12T10:37:04.419Z,1.47
2018-11-12T10:39:34.207Z,1.53
2018-11-12T10:42:03.970Z,1.33
2018-11-12T10:44:34.175Z,1.40
2018-11-12T10:47:03.974Z,1.47
2018-11-12T10:49:33.787Z,1.20
2018-11-12T10:52:03.817Z,1.25
2018-11-12T10:54:33.712Z,1.10
2018-11-12T10:57:03.574Z,1.23
2018-11-12T10:59:33.487Z,1.10
2018-11-12T11:02:08.562Z,0.98
2018-11-12T11:04:38.458Z,1.15
2018-11-12T11:07:08.287Z,1.20
2018-11-12T11:09:38.138Z,0.98
2018-11-12T11:12:07.922Z,1.02
2018-11-12T11:14:37.686Z,1.25
2018-11-12T11:17:07.542Z,1.55
2018-11-12T11:19:37.382Z,1.30
2018-11-12T11:22:07.346Z,1.17
2018-11-12T11:24:37.194Z,1.22
2018-11-12T11:27:06.991Z,1.20
2018-11-12T11:29:36.851Z,1.15
2018-11-12T11:32:06.883Z,0.78
2018-11-12T11:34:36.755Z,0.90
2018-11-12T11:37:06.763Z,1.22
2018-11-12T11:39:36.591Z,1.02
2018-11-12T11:42:06.606Z,0.75
2018-11-12T11:44:36.415Z,1.10
2018-11-12T11:47:07.065Z,1.00
2018-11-12T11:49:36.843Z,1.10
2018-11-12T11:52:06.738Z,1.50
2018-11-12T11:54:36.610Z,0.88
2018-11-12T11:57:06.491Z,1.07
2018-11-12T11:59:36.339Z,1.05
2018-11-12T12:02:05.893Z,1.12
2018-11-12T12:04:35.730Z,1.10
2018-11-12T12:07:06.321Z,1.00
2018-11-12T12:09:36.168Z,1.00
2018-11-12T12:12:06.564Z,0.90
2018-11-12T12:14:36.429Z,1.10
2018-11-12T12:17:06.362Z,1.02
2018-11-12T12:19:36.157Z,0.80
2018-11-12T12:22:06.022Z,1.00
2018-11-12T12:24:35.821Z,0.60
2018-11-12T12:27:06.146Z,0.90
2018-11-12T12:29:36.011Z,0.82
2018-11-12T12:32:06.131Z,0.80
2018-11-12T12:34:36.006Z,0.90
2018-11-12T12:37:06.027Z,0.80
2018-11-12T12:42:21.367Z,0.60
2018-11-12T12:44:51.289Z,0.85
2018-11-12T12:47:22.658Z,0.80
2018-11-12T12:49:59.711Z,1.05
2018-11-12T12:52:30.524Z,0.85
2018-11-12T12:55:07.290Z,0.90
2018-11-12T12:57:40.863Z,0.70
2018-11-12T13:00:20.663Z,0.85
2018-11-12T13:02:50.505Z,0.68
2018-11-12T13:05:25.030Z,0.68
2018-11-12T13:07:54.922Z,0.80
2018-11-12T13:10:25.207Z,0.80
2018-11-12T13:12:55.040Z,0.80
2018-11-12T13:15:24.863Z,1.42
2018-11-12T13:17:56.715Z,1.10
2018-11-12T13:20:26.624Z,0.93
2018-11-12T13:22:56.328Z,0.95
2018-11-12T13:25:26.297Z,0.70
2018-11-12T13:27:57.143Z,0.65
2018-11-12T13:30:27.175Z,0.85
2018-11-12T13:32:57.027Z,0.90
2018-11-12T13:35:26.882Z,1.00
2018-11-12T13:37:56.643Z,0.90
2018-11-12T13:40:27.375Z,0.70
2018-11-12T13:42:58.588Z,0.93
2018-11-12T13:45:28.926Z,0.90
2018-11-12T13:47:59.669Z,0.75
2018-11-12T13:50:30.755Z,0.65
2018-11-12T13:53:01.792Z,0.80
2018-11-12T13:55:31.543Z,0.68
2018-11-12T13:58:01.435Z,0.80
2018-11-12T14:00:31.727Z,0.90
2018-11-12T14:03:01.548Z,0.88
2018-11-12T14:05:31.416Z,1.05
2018-11-12T14:08:01.287Z,0.70
2018-11-12T14:10:31.569Z,0.85
2018-11-12T14:13:01.583Z,1.15
2018-11-12T14:15:31.361Z,0.70
2018-11-12T14:18:01.268Z,0.80
2018-11-12T14:20:31.190Z,0.98
2018-11-12T14:23:00.867Z,0.93
2018-11-12T14:25:30.634Z,0.90
2018-11-12T14:28:00.437Z,0.90
2018-11-12T14:30:31.094Z,0.80
2018-11-12T14:33:00.915Z,1.10
2018-11-12T14:35:30.770Z,0.80
2018-11-12T14:38:00.539Z,1.02
2018-11-12T14:40:30.386Z,0.78
2018-11-12T14:43:00.334Z,0.93
2018-11-12T14:45:30.190Z,1.07
2018-11-12T14:48:00.154Z,1.20
2018-11-12T14:50:30.079Z,1.00
2018-11-12T14:53:00.012Z,1.32
2018-11-12T14:55:29.886Z,1.10
2018-11-12T14:57:59.711Z,0.90
2018-11-12T15:00:30.394Z,1.00
2018-11-12T15:03:00.427Z,1.67
2018-11-12T15:05:30.267Z,1.92
2018-11-12T15:08:00.075Z,1.98
2018-11-12T15:10:29.979Z,1.80
2018-11-12T15:12:59.806Z,1.50
2018-11-12T15:15:29.735Z,1.17
2018-11-12T15:17:59.646Z,1.60
2018-11-12T15:20:29.530Z,1.47
2018-11-12T15:22:59.367Z,1.50
2018-11-12T15:25:29.150Z,1.20
2018-11-12T15:27:58.950Z,1.20
2018-11-12T15:30:28.828Z,2.02
2018-11-12T15:32:58.695Z,1.45
2018-11-12T15:35:28.547Z,1.25
2018-11-12T15:37:58.494Z,1.30
2018-11-12T15:40:28.362Z,1.80
2018-11-12T15:42:58.219Z,1.90
2018-11-12T15:45:28.150Z,1.40
2018-11-12T15:47:57.979Z,1.30
2018-11-12T15:50:31.650Z,1.60
2018-11-12T15:53:01.504Z,1.65
2018-11-12T15:55:31.299Z,1.52
2018-11-12T15:58:01.214Z,0.98
2018-11-12T16:00:31.079Z,1.62
2018-11-12T16:03:00.950Z,1.12
2018-11-12T16:05:30.801Z,1.07
2018-11-12T16:08:00.595Z,1.35
2018-11-12T16:10:39.464Z,1.10
2018-11-12T16:13:09.684Z,1.37
2018-11-12T16:15:41.811Z,1.75
2018-11-12T16:18:12.062Z,1.33
2018-11-12T16:20:42.282Z,1.43
2018-11-12T16:23:13.328Z,1.20
2018-11-12T16:25:43.584Z,1.40
2018-11-12T16:28:14.081Z,1.60
2018-11-12T16:30:44.021Z,3.27
2018-11-12T16:33:13.897Z,2.87
2018-11-12T16:35:43.854Z,2.55
2018-11-12T16:38:13.751Z,3.17
2018-11-12T16:40:43.603Z,1.80
2018-11-12T16:43:13.770Z,2.30
2018-11-12T16:45:43.707Z,2.00
2018-11-12T16:48:13.483Z,1.97
2018-11-12T16:50:43.474Z,2.37
2018-11-12T16:53:13.339Z,2.10
2018-11-12T16:55:43.325Z,1.87
2018-11-12T16:58:13.913Z,2.33
2018-11-12T17:00:43.841Z,2.17
2018-11-12T17:03:14.206Z,2.10
2018-11-12T17:05:44.020Z,2.67
2018-11-12T17:08:14.451Z,1.83
2018-11-12T17:10:44.322Z,2.40
2018-11-12T17:13:14.210Z,2.30
2018-11-12T17:15:44.141Z,2.40
2018-11-12T17:18:13.909Z,2.30
2018-11-12T17:20:43.826Z,3.03
2018-11-12T17:23:13.968Z,2.50
2018-11-12T17:25:43.822Z,2.30
2018-11-12T17:28:13.718Z,2.83
2018-11-12T17:30:43.591Z,2.67
2018-11-12T17:33:13.721Z,2.07
2018-11-12T17:35:43.672Z,1.33
2018-11-12T17:38:13.647Z,1.90
2018-11-12T17:40:43.526Z,2.27
2018-11-12T17:43:13.564Z,1.70
2018-11-12T17:45:43.367Z,2.40
2018-11-12T17:48:13.270Z,2.43
2018-11-12T17:50:43.073Z,2.20
2018-11-12T17:53:12.970Z,1.53
2018-11-12T17:55:42.944Z,1.60
2018-11-12T17:58:12.726Z,2.40
2018-11-12T18:00:42.543Z,2.10
2018-11-12T18:03:12.406Z,1.80
2018-11-12T18:05:42.392Z,1.70
2018-11-12T18:08:12.350Z,2.10
2018-11-12T18:10:42.223Z,1.60
2018-11-12T18:13:12.119Z,1.97
2018-11-12T18:15:42.022Z,2.10
2018-11-12T18:18:11.924Z,2.33
2018-11-12T18:20:41.798Z,3.20
2018-11-12T18:23:11.800Z,3.67
2018-11-12T18:25:41.554Z,2.40
2018-11-12T18:28:11.420Z,2.60
2018-11-12T18:30:41.631Z,2.40
2018-11-12T18:33:11.287Z,3.70
2018-11-12T18:35:41.187Z,2.00
2018-11-12T18:38:11.164Z,3.17
2018-11-12T18:40:41.676Z,2.27
2018-11-12T18:43:12.106Z,2.23
2018-11-12T18:45:42.024Z,1.60
2018-11-12T18:48:11.865Z,2.10
2018-11-12T18:50:42.206Z,1.50
2018-11-12T18:53:12.366Z,1.93
2018-11-12T18:55:42.133Z,1.67
2018-11-12T18:58:12.237Z,1.97
2018-11-12T19:00:42.039Z,1.73
2018-11-12T19:03:11.918Z,1.60
2018-11-12T19:05:41.909Z,2.57
2018-11-12T19:08:11.890Z,1.50
2018-11-12T19:10:41.746Z,1.90
2018-11-12T19:13:11.549Z,1.67
2018-11-12T19:15:41.439Z,1.63
2018-11-12T19:18:12.907Z,1.33
2018-11-12T19:20:44.016Z,1.80
2018-11-12T19:23:14.013Z,1.33
2018-11-12T19:25:43.834Z,1.10
2018-11-12T19:28:13.666Z,1.40
2018-11-12T19:30:43.474Z,1.00
2018-11-12T19:33:14.011Z,1.07
2018-11-12T19:35:43.927Z,1.50
2018-11-12T19:38:13.754Z,1.23
2018-11-12T19:40:44.546Z,1.20
2018-11-12T19:43:14.519Z,1.33
2018-11-12T19:45:44.324Z,2.27
2018-11-12T19:48:14.166Z,2.00
2018-11-12T19:50:44.827Z,2.10
2018-11-12T19:53:14.710Z,2.10
2018-11-12T19:55:44.603Z,1.60
2018-11-12T19:58:14.626Z,1.90
2018-11-12T20:00:44.515Z,1.20
2018-11-12T20:03:14.362Z,1.63
2018-11-12T20:05:44.324Z,1.33
2018-11-12T20:08:14.300Z,1.80
2018-11-12T20:10:44.209Z,2.23
2018-11-12T20:13:14.072Z,1.70
2018-11-12T20:15:43.887Z,2.10
2018-11-12T20:18:13.726Z,2.43
2018-11-12T20:20:43.608Z,3.03
2018-11-12T20:23:13.506Z,3.20
2018-11-12T20:25:43.539Z,3.33
2018-11-12T20:28:13.384Z,2.93
2018-11-12T20:30:43.226Z,2.55
2018-11-12T20:33:13.160Z,2.50
2018-11-12T20:35:43.007Z,2.97
2018-11-12T20:38:14.627Z,2.27
2018-11-12T20:40:44.456Z,2.70
2018-11-12T20:43:14.311Z,2.63
2018-11-12T20:45:44.095Z,2.90
2018-11-12T20:48:13.987Z,2.57
2018-11-12T20:50:43.803Z,3.17
2018-11-12T20:53:13.691Z,2.60
2018-11-12T20:55:44.110Z,2.60
2018-11-12T20:58:13.939Z,2.90
2018-11-12T21:00:44.067Z,2.47
2018-11-12T21:03:13.879Z,2.60
2018-11-12T21:05:43.752Z,3.00
2018-11-12T21:08:13.565Z,3.03
2018-11-12T21:10:43.387Z,2.87
2018-11-12T21:13:13.340Z,2.37
2018-11-12T21:15:43.217Z,2.83
2018-11-12T21:18:13.173Z,2.77
2018-11-12T21:20:43.022Z,2.47
2018-11-12T21:23:12.894Z,3.37
2018-11-12T21:25:42.759Z,3.13
2018-11-12T21:28:12.771Z,2.17
2018-11-12T21:30:43.438Z,2.30
2018-11-12T21:33:13.465Z,1.83
2018-11-12T21:35:43.570Z,2.43
2018-11-12T21:38:14.190Z,2.73
2018-11-12T21:40:45.091Z,1.70
2018-11-12T21:43:15.654Z,2.43
2018-11-12T21:45:45.553Z,2.63
2018-11-12T21:48:15.704Z,2.30
2018-11-12T21:50:45.674Z,2.37
2018-11-12T21:53:15.831Z,2.73
2018-11-12T21:55:45.938Z,3.10
2018-11-12T21:58:16.576Z,2.83
2018-11-12T22:00:46.735Z,2.97
2018-11-12T22:03:16.614Z,2.27
2018-11-12T22:05:46.442Z,2.70
2018-11-12T22:08:16.374Z,2.23
2018-11-12T22:10:46.247Z,2.67
2018-11-12T22:13:16.126Z,1.87
2018-11-12T22:15:45.958Z,2.13
2018-11-12T22:18:16.891Z,2.30
2018-11-12T22:20:46.719Z,2.37
2018-11-12T22:23:16.558Z,2.50
2018-11-12T22:25:46.405Z,2.90
2018-11-12T22:28:17.104Z,2.27
2018-11-12T22:30:46.919Z,2.30
2018-11-12T22:33:16.812Z,2.13
2018-11-12T22:35:46.632Z,2.73
2018-11-12T22:38:16.457Z,2.57
2018-11-12T22:40:46.819Z,2.43
2018-11-12T22:43:16.752Z,2.23
2018-11-12T22:45:46.600Z,2.57
2018-11-12T22:48:16.408Z,2.43
2018-11-12T22:50:46.211Z,2.63
2018-11-12T22:53:16.049Z,2.87
2018-11-12T22:55:46.933Z,3.03
2018-11-12T22:58:17.529Z,2.03
2018-11-12T23:00:48.266Z,2.90
2018-11-12T23:03:18.210Z,2.77
2018-11-12T23:05:48.034Z,2.67
2018-11-12T23:08:17.878Z,2.03
2018-11-12T23:10:47.679Z,2.60
2018-11-12T23:13:17.475Z,1.83
2018-11-12T23:15:47.292Z,2.23
2018-11-12T23:18:17.139Z,2.37
2018-11-12T23:20:46.914Z,2.40
2018-11-12T23:23:16.741Z,3.07
2018-11-12T23:25:46.551Z,2.97
2018-11-12T23:28:16.426Z,3.13
2018-11-12T23:30:46.275Z,2.07
2018-11-12T23:33:16.101Z,2.13
2018-11-12T23:35:45.900Z,2.43
2018-11-12T23:38:15.716Z,2.43
2018-11-12T23:40:45.527Z,3.17
2018-11-12T23:43:15.382Z,1.90
2018-11-12T23:45:45.242Z,2.33
2018-11-12T23:48:15.150Z,2.77
2018-11-12T23:50:44.970Z,2.30
2018-11-12T23:53:14.834Z,2.33
2018-11-12T23:55:44.716Z,2.67
2018-11-12T23:58:14.583Z,1.90
